Terminal Aerodrome Forecast
Issued by NWS

Current Version | Previous Version | Text Only | Print | Product List | Glossary On
Versions: 1 2 3 4 5 6 7 8 9 10 11 12 13
000
FTUS41 KLWX 261137
TAFMTN
TAF
KMTN 261137Z 2612/2712 VRB03KT P6SM SCT080 BKN120
     FM261400 01008KT P6SM OVC100
     FM270000 VRB03KT P6SM BKN090
     FM271100 32010KT P6SM SCT090=

USA.gov is the U.S. government's official web portal to all federal, state and local government web resources and services.